Time;durP1;ratioP1;P1;durP2;ratioP2;P2;SDS_P1;SDS_P2;PMS_P1;PMS_P2;Temp;Humidity;BMP_temperature;BMP_pressure;BME280_temperature;BME280_humidity;BME280_pressure;Samples;Min_cycle;Max_cycle;Signal;HPM_P1;HPM_P2
2022/04/16 00:00:22;;;;;;;11.70;8.83;;;;;;;8.34;100.00;103380.56;4962001;28;20637;-68
2022/04/16 00:02:47;;;;;;;11.30;9.50;;;;;;;8.29;100.00;103340.78;4960893;28;20190;-68
2022/04/16 00:05:14;;;;;;;11.97;10.07;;;;;;;8.47;100.00;103385.78;4965002;28;20588;-69
2022/04/16 00:07:40;;;;;;;11.37;10.00;;;;;;;8.42;100.00;103378.16;4961346;28;20201;-69
2022/04/16 00:10:06;;;;;;;12.10;9.87;;;;;;;8.52;100.00;103397.00;4958170;28;20454;-69
2022/04/16 00:12:31;;;;;;;11.70;9.53;;;;;;;8.37;100.00;103365.13;4958749;28;20469;-69
2022/04/16 00:14:57;;;;;;;10.60;9.30;;;;;;;8.20;100.00;103316.63;4958359;28;20481;-69
2022/04/16 00:17:22;;;;;;;13.00;11.10;;;;;;;8.17;100.00;103322.22;4957272;28;20561;-69
2022/04/16 00:19:48;;;;;;;11.37;10.00;;;;;;;8.47;100.00;103381.28;4947571;28;20289;-69
2022/04/16 00:22:13;;;;;;;12.60;10.37;;;;;;;8.46;100.00;103365.38;4961456;28;20246;-69
2022/04/16 00:24:40;;;;;;;11.57;10.17;;;;;;;8.66;100.00;103382.50;4956477;28;20190;-68
2022/04/16 00:27:07;;;;;;;11.93;10.63;;;;;;;8.69;100.00;103398.31;4958897;28;20182;-69
2022/04/16 00:29:34;;;;;;;11.17;10.07;;;;;;;8.58;100.00;103369.75;4957155;28;21022;-69
2022/04/16 00:32:00;;;;;;;12.80;11.37;;;;;;;8.64;100.00;103387.13;4959982;28;20879;-68
2022/04/16 00:34:25;;;;;;;14.80;11.83;;;;;;;8.69;100.00;103390.28;4959881;28;21147;-68
2022/04/16 00:36:51;;;;;;;14.10;11.17;;;;;;;8.43;100.00;103361.13;4943984;28;20186;-68
2022/04/16 00:39:16;;;;;;;12.77;11.30;;;;;;;8.61;100.00;103377.50;4961093;28;20607;-69
2022/04/16 00:41:43;;;;;;;15.23;12.53;;;;;;;8.68;100.00;103389.44;4955902;28;20213;-69
2022/04/16 00:44:09;;;;;;;16.20;11.77;;;;;;;8.78;100.00;103394.88;4960671;28;20194;-69
2022/04/16 00:46:35;;;;;;;14.27;12.10;;;;;;;8.55;100.00;103378.00;4959746;28;20482;-68
2022/04/16 00:49:00;;;;;;;15.10;12.47;;;;;;;8.59;100.00;103399.06;4958942;28;20518;-69
2022/04/16 00:51:27;;;;;;;18.27;14.13;;;;;;;8.65;100.00;103383.47;4957985;28;20226;-69
2022/04/16 00:53:53;;;;;;;14.90;13.40;;;;;;;8.68;100.00;103381.41;4957503;28;20547;-69
2022/04/16 00:56:18;;;;;;;17.33;13.40;;;;;;;8.44;100.00;103349.44;4960030;28;20449;-69
2022/04/16 00:58:44;;;;;;;19.80;13.90;;;;;;;8.58;100.00;103392.00;4960138;28;20457;-69
2022/04/16 01:01:09;;;;;;;18.47;13.93;;;;;;;8.75;100.00;103409.38;4953811;28;20596;-69
2022/04/16 01:03:35;;;;;;;17.27;14.30;;;;;;;8.63;100.00;103391.63;4959674;28;20186;-69
2022/04/16 01:06:01;;;;;;;16.70;14.57;;;;;;;8.66;100.00;103409.28;4958396;28;20194;-69
2022/04/16 01:08:27;;;;;;;17.47;14.93;;;;;;;8.60;100.00;103408.78;4957761;28;20816;-69
2022/04/16 01:10:52;;;;;;;18.77;14.63;;;;;;;8.63;100.00;103423.75;4962333;28;20217;-68
2022/04/16 01:13:18;;;;;;;20.10;14.47;;;;;;;8.45;100.00;103423.38;4961652;28;20477;-69
2022/04/16 01:15:44;;;;;;;19.47;14.63;;;;;;;8.28;100.00;103413.13;4959024;28;20690;-69
2022/04/16 01:18:12;;;;;;;16.90;14.80;;;;;;;8.14;100.00;103407.03;4958568;28;20446;-69
2022/04/16 01:20:38;;;;;;;18.57;15.40;;;;;;;8.15;100.00;103434.63;4955893;28;20477;-69
2022/04/16 01:23:04;;;;;;;18.40;15.47;;;;;;;7.81;100.00;103397.16;4954921;28;20441;-68
2022/04/16 01:25:32;;;;;;;19.03;14.53;;;;;;;7.92;100.00;103397.16;4955939;28;20516;-69
2022/04/16 01:27:58;;;;;;;21.40;14.80;;;;;;;8.03;100.00;103440.91;4959177;28;20191;-69
2022/04/16 01:30:24;;;;;;;20.60;16.33;;;;;;;7.68;100.00;103413.25;4960094;28;20468;-69
2022/04/16 01:32:49;;;;;;;18.80;15.27;;;;;;;7.88;100.00;103443.81;4958700;28;20201;-68
2022/04/16 01:35:16;;;;;;;19.03;15.77;;;;;;;7.87;100.00;103433.25;4957661;28;20443;-69
2022/04/16 01:37:41;;;;;;;16.97;15.17;;;;;;;7.57;100.00;103445.25;4956519;28;20187;-68
2022/04/16 01:40:09;;;;;;;16.70;14.87;;;;;;;7.35;100.00;103399.78;4958440;28;20445;-68
2022/04/16 01:42:36;;;;;;;17.50;15.03;;;;;;;7.72;100.00;103435.25;4956449;28;20210;-68
2022/04/16 01:45:08;;;;;;;16.10;14.20;;;;;;;7.25;100.00;103378.25;4960794;28;20438;-68
2022/04/16 01:47:36;;;;;;;22.60;15.43;;;;;;;7.54;100.00;103428.63;4957724;28;20433;-68
2022/04/16 01:50:01;;;;;;;16.80;14.10;;;;;;;7.24;100.00;103390.75;4941229;28;20453;-69
2022/04/16 01:52:27;;;;;;;17.23;15.30;;;;;;;7.16;100.00;103451.03;4958670;28;20469;-69
2022/04/16 01:54:53;;;;;;;18.70;14.07;;;;;;;7.29;100.00;103446.50;4956125;28;20210;-69
2022/04/16 01:57:19;;;;;;;18.40;15.40;;;;;;;6.84;100.00;103398.19;4960129;28;20559;-69
2022/04/16 01:59:46;;;;;;;16.40;13.87;;;;;;;7.05;100.00;103430.44;4956029;28;20456;-68
2022/04/16 02:02:12;;;;;;;17.53;14.87;;;;;;;7.23;100.00;103465.59;4955043;28;20458;-68
2022/04/16 02:04:37;;;;;;;15.87;13.60;;;;;;;7.04;100.00;103455.44;4961675;28;20441;-69
2022/04/16 02:07:03;;;;;;;17.33;15.43;;;;;;;6.86;100.00;103422.09;4956634;28;20201;-69
2022/04/16 02:09:28;;;;;;;17.03;13.30;;;;;;;7.09;100.00;103444.41;4956642;28;20403;-68
2022/04/16 02:11:53;;;;;;;15.13;12.80;;;;;;;7.07;100.00;103449.88;4955669;28;20219;-68
2022/04/16 02:14:21;;;;;;;16.97;13.10;;;;;;;6.79;100.00;103441.19;4956461;28;20211;-68
2022/04/16 02:16:47;;;;;;;15.17;11.70;;;;;;;6.89;100.00;103449.41;4961126;28;20186;-69
2022/04/16 02:19:14;;;;;;;14.43;11.00;;;;;;;7.11;100.00;103464.69;4958952;28;20458;-69
2022/04/16 02:21:39;;;;;;;13.40;10.43;;;;;;;7.14;100.00;103468.94;4957278;28;20481;-68
2022/04/16 02:24:06;;;;;;;13.30;10.80;;;;;;;6.85;100.00;103447.91;4960812;28;20824;-69
2022/04/16 02:26:32;;;;;;;11.73;10.50;;;;;;;6.79;100.00;103448.34;4958861;28;20266;-69
2022/04/16 02:28:58;;;;;;;13.17;10.13;;;;;;;6.96;100.00;103463.13;4956249;28;20540;-69
2022/04/16 02:31:25;;;;;;;12.37;10.53;;;;;;;6.65;100.00;103469.81;4955683;28;20207;-68
2022/04/16 02:33:50;;;;;;;11.10;9.60;;;;;;;6.79;100.00;103467.00;4953676;28;20473;-68
2022/04/16 02:36:16;;;;;;;12.83;10.60;;;;;;;6.71;100.00;103475.59;4936513;28;20536;-69
2022/04/16 02:38:41;;;;;;;12.20;9.80;;;;;;;6.56;100.00;103452.66;4954731;28;20294;-69
2022/04/16 02:41:07;;;;;;;11.83;9.20;;;;;;;6.94;100.00;103476.59;4941241;28;20232;-68
2022/04/16 02:43:32;;;;;;;11.57;9.47;;;;;;;6.88;100.00;103479.69;4957264;28;20199;-69
2022/04/16 02:48:42;;;;;;;13.73;10.50;;;;;;;6.40;100.00;103438.72;4954817;28;20277;-68
2022/04/16 02:51:08;;;;;;;11.70;9.40;;;;;;;6.65;100.00;103457.31;4966385;23;20507;-71
2022/04/16 02:53:33;;;;;;;12.93;10.23;;;;;;;6.36;100.00;103445.19;4974212;28;20259;-71
2022/04/16 02:55:59;;;;;;;14.40;10.23;;;;;;;6.60;100.00;103493.31;4977413;28;20196;-71
2022/04/16 02:58:24;;;;;;;11.50;8.83;;;;;;;6.56;100.00;103490.81;4975060;28;20197;-71
2022/04/16 03:00:49;;;;;;;15.90;9.93;;;;;;;6.67;100.00;103502.56;4981473;28;20647;-71
2022/04/16 03:03:15;;;;;;;11.63;9.97;;;;;;;6.59;100.00;103499.59;4996980;28;20356;-71
2022/04/16 03:05:41;;;;;;;12.17;9.60;;;;;;;6.59;100.00;103502.25;4995664;28;20239;-71
2022/04/16 03:08:07;;;;;;;13.30;10.07;;;;;;;5.99;100.00;103447.72;4993594;28;20448;-71
2022/04/16 03:10:33;;;;;;;12.57;10.20;;;;;;;6.35;100.00;103487.00;4998758;28;20197;-71
2022/04/16 03:12:58;;;;;;;10.97;9.57;;;;;;;6.38;100.00;103473.47;4997141;28;20189;-71
2022/04/16 03:18:10;;;;;;;11.80;9.80;;;;;;;6.26;100.00;103514.31;4997211;28;20264;-73
2022/04/16 03:20:37;;;;;;;13.60;10.53;;;;;;;6.36;100.00;103517.19;4998707;28;20503;-71
2022/04/16 03:23:03;;;;;;;10.53;9.27;;;;;;;6.15;100.00;103516.84;4995794;28;20444;-71
2022/04/16 03:25:29;;;;;;;13.43;10.67;;;;;;;6.24;100.00;103524.19;4997431;28;20960;-71
2022/04/16 03:27:58;;;;;;;13.00;9.80;;;;;;;5.89;100.00;103461.66;4996002;28;20448;-71
2022/04/16 03:30:24;;;;;;;12.67;10.10;;;;;;;6.41;100.00;103528.38;4993747;28;20499;-71
2022/04/16 03:32:51;;;;;;;11.77;9.90;;;;;;;6.33;100.00;103521.78;4999837;28;20478;-71
2022/04/16 03:35:21;;;;;;;11.90;10.30;;;;;;;6.29;100.00;103525.59;4998149;28;20930;-71
2022/04/16 03:37:46;;;;;;;12.17;10.87;;;;;;;5.84;100.00;103469.13;4998810;28;20462;-72
2022/04/16 03:40:12;;;;;;;14.50;10.40;;;;;;;6.25;100.00;103534.78;4999860;28;20441;-71
2022/04/16 03:42:49;;;;;;;14.77;10.67;;;;;;;6.09;100.00;103532.28;5001446;28;20337;-72
2022/04/16 03:45:20;;;;;;;11.87;9.67;;;;;;;6.01;100.00;103539.94;5000732;28;20485;-71
2022/04/16 03:47:46;;;;;;;12.50;10.63;;;;;;;5.90;100.00;103521.09;5003064;28;20554;-71
2022/04/16 03:50:12;;;;;;;12.37;10.10;;;;;;;6.03;100.00;103540.69;5003107;28;20515;-71
2022/04/16 03:52:42;;;;;;;14.97;10.57;;;;;;;5.92;100.00;103540.50;5015137;28;20229;-71
2022/04/16 04:00:43;;;;;;;11.30;9.87;;;;;;;6.15;100.00;103543.50;5021544;28;21346;-71
2022/04/16 04:03:10;;;;;;;15.37;11.83;;;;;;;6.11;100.00;103546.38;5016770;28;20440;-71
2022/04/16 04:05:37;;;;;;;15.00;11.53;;;;;;;6.00;100.00;103540.91;5022130;28;20439;-71
2022/04/16 04:08:04;;;;;;;14.37;11.60;;;;;;;5.93;100.00;103538.69;5013788;28;20454;-71
2022/04/16 04:10:29;;;;;;;13.93;11.30;;;;;;;6.14;100.00;103549.78;5021431;28;20581;-71
2022/04/16 04:12:55;;;;;;;16.67;11.33;;;;;;;6.01;100.00;103539.06;5002277;28;20479;-71
2022/04/16 04:15:20;;;;;;;15.97;11.83;;;;;;;5.93;100.00;103538.69;5021899;28;20196;-71
2022/04/16 04:17:46;;;;;;;14.90;11.37;;;;;;;5.86;100.00;103519.63;5018718;28;20593;-71
2022/04/16 04:20:12;;;;;;;16.33;11.27;;;;;;;6.15;100.00;103547.00;5019744;28;20192;-71
2022/04/16 04:22:37;;;;;;;13.67;11.43;;;;;;;6.18;100.00;103567.25;5001928;28;20467;-72
2022/04/16 04:25:03;;;;;;;14.97;11.50;;;;;;;5.70;100.00;103508.25;5012332;28;20199;-71
2022/04/16 04:27:28;;;;;;;19.10;11.70;;;;;;;5.84;100.00;103530.38;5017941;28;20639;-71
2022/04/16 04:29:53;;;;;;;15.37;11.03;;;;;;;6.01;100.00;103547.91;5018908;28;20189;-71
2022/04/16 04:32:19;;;;;;;13.97;11.60;;;;;;;6.22;100.00;103580.28;5018717;28;20351;-72
2022/04/16 04:34:44;;;;;;;14.23;10.57;;;;;;;6.33;100.00;103548.44;5017821;28;20559;-71
2022/04/16 04:37:09;;;;;;;16.70;11.80;;;;;;;6.41;100.00;103563.03;5017305;28;20219;-71
2022/04/16 04:39:35;;;;;;;13.97;10.53;;;;;;;6.43;100.00;103582.47;5018539;28;20194;-71
2022/04/16 04:42:00;;;;;;;16.90;10.87;;;;;;;6.38;100.00;103577.44;5016769;28;20239;-71
2022/04/16 04:44:25;;;;;;;12.90;10.23;;;;;;;6.23;100.00;103559.81;5021436;28;20207;-71
2022/04/16 04:46:51;;;;;;;13.43;9.63;;;;;;;5.97;100.00;103517.13;5017835;28;20249;-71
2022/04/16 04:49:16;;;;;;;13.03;10.33;;;;;;;6.33;100.00;103582.22;5014930;28;20536;-71
2022/04/16 04:51:42;;;;;;;13.80;10.10;;;;;;;6.12;100.00;103547.22;5023039;28;20224;-71
2022/04/16 04:54:07;;;;;;;12.43;9.00;;;;;;;6.37;100.00;103598.88;5019796;28;20204;-72
2022/04/16 04:56:34;;;;;;;12.67;9.13;;;;;;;6.34;100.00;103599.94;5023861;28;20282;-72
2022/04/16 04:59:00;;;;;;;12.43;9.50;;;;;;;5.79;100.00;103507.69;5023703;28;20189;-71
2022/04/16 05:01:25;;;;;;;13.80;9.10;;;;;;;6.21;100.00;103599.88;5019211;28;20463;-71
2022/04/16 05:03:51;;;;;;;13.47;8.77;;;;;;;6.27;100.00;103601.28;5017200;28;22320;-71
2022/04/16 05:06:16;;;;;;;9.07;7.70;;;;;;;6.32;100.00;103589.38;5020434;28;20211;-72
2022/04/16 05:08:43;;;;;;;11.13;8.20;;;;;;;6.33;100.00;103595.53;5020765;28;20221;-72
2022/04/16 05:11:09;;;;;;;9.93;8.23;;;;;;;5.87;100.00;103516.88;5020253;28;20212;-72
2022/04/16 05:13:34;;;;;;;9.57;7.07;;;;;;;6.19;100.00;103567.19;5015246;28;20550;-72
2022/04/16 05:15:59;;;;;;;10.77;7.90;;;;;;;6.46;100.00;103591.09;5003079;28;20674;-72
2022/04/16 05:18:26;;;;;;;11.93;7.80;;;;;;;6.04;100.00;103569.03;5016785;28;20231;-72
2022/04/16 05:20:51;;;;;;;10.70;7.63;;;;;;;6.45;100.00;103599.19;5019691;28;20188;-72
2022/04/16 05:23:17;;;;;;;10.60;7.10;;;;;;;6.33;100.00;103604.41;5016678;28;20446;-72
2022/04/16 05:25:42;;;;;;;10.00;6.47;;;;;;;6.16;100.00;103594.00;5019294;28;20444;-72
2022/04/16 05:28:09;;;;;;;9.80;6.00;;;;;;;6.23;100.00;103586.47;5015830;28;20192;-72
2022/04/16 05:30:39;;;;;;;9.10;6.30;;;;;;;6.63;100.00;103611.28;5020176;28;20215;-72
2022/04/16 05:33:16;;;;;;;9.20;6.40;;;;;;;6.32;100.00;103617.84;5016349;28;20435;-72
2022/04/16 05:35:42;;;;;;;8.70;5.40;;;;;;;6.42;100.00;103620.72;5016428;28;20810;-71
2022/04/16 05:38:08;;;;;;;6.70;4.77;;;;;;;6.28;100.00;103606.53;5016720;28;20439;-72
2022/04/16 05:40:33;;;;;;;6.43;5.00;;;;;;;6.37;100.00;103618.38;5023276;28;20449;-71
2022/04/16 05:42:58;;;;;;;7.80;5.10;;;;;;;5.97;100.00;103562.41;5021424;28;20223;-72
2022/04/16 05:45:24;;;;;;;6.03;4.40;;;;;;;6.08;100.00;103570.56;5021538;28;20196;-72
2022/04/16 05:47:49;;;;;;;7.70;4.53;;;;;;;6.25;100.00;103632.50;5023139;28;20184;-72
2022/04/16 05:50:15;;;;;;;6.80;4.40;;;;;;;6.26;100.00;103596.94;5020235;28;20242;-71
2022/04/16 05:52:41;;;;;;;6.70;4.10;;;;;;;6.20;100.00;103568.03;5013385;28;20304;-71
2022/04/16 05:55:07;;;;;;;5.20;3.90;;;;;;;6.46;100.00;103612.44;5015462;28;20212;-70
2022/04/16 05:57:32;;;;;;;6.20;3.63;;;;;;;6.44;100.00;103598.34;5016207;28;20286;-72
2022/04/16 05:59:58;;;;;;;5.20;3.73;;;;;;;6.37;100.00;103607.72;5016159;28;20455;-72
2022/04/16 06:02:23;;;;;;;6.53;3.80;;;;;;;6.40;100.00;103618.19;5012228;28;20216;-72
2022/04/16 06:04:49;;;;;;;5.60;3.50;;;;;;;6.59;100.00;103643.59;5010273;28;20185;-70
2022/04/16 06:07:15;;;;;;;6.33;3.40;;;;;;;6.36;100.00;103614.00;5008399;28;20834;-71
2022/04/16 06:09:41;;;;;;;4.67;3.23;;;;;;;6.49;100.00;103625.56;5017496;28;20681;-72
2022/04/16 06:12:09;;;;;;;4.27;3.43;;;;;;;6.61;100.00;103647.88;5016772;28;20475;-70
2022/04/16 06:14:35;;;;;;;5.13;3.13;;;;;;;6.63;100.00;103645.13;5001067;28;20208;-71
2022/04/16 06:17:00;;;;;;;5.70;3.67;;;;;;;6.81;100.00;103643.00;5015518;28;20538;-70
2022/04/16 06:19:25;;;;;;;6.07;3.33;;;;;;;6.73;100.00;103622.16;5013896;28;20474;-71
2022/04/16 06:21:51;;;;;;;4.20;2.60;;;;;;;6.86;100.00;103639.06;5012315;28;20208;-72
2022/04/16 06:24:16;;;;;;;3.17;2.87;;;;;;;6.89;100.00;103620.16;5012341;28;20186;-72
2022/04/16 06:26:45;;;;;;;5.73;3.27;;;;;;;6.63;100.00;103607.78;5008402;28;20736;-71
2022/04/16 06:29:10;;;;;;;3.50;2.70;;;;;;;6.86;100.00;103644.38;5012363;28;20196;-71
2022/04/16 06:31:36;;;;;;;5.93;3.07;;;;;;;6.81;100.00;103619.84;5017261;28;20463;-71
2022/04/16 06:34:01;;;;;;;2.70;2.50;;;;;;;6.93;100.00;103660.81;4997860;28;20808;-72
2022/04/16 06:36:27;;;;;;;4.60;2.60;;;;;;;6.99;100.00;103644.38;5014083;28;20263;-71
2022/04/16 06:38:52;;;;;;;3.10;2.40;;;;;;;7.07;100.00;103657.22;5011728;28;20203;-70
2022/04/16 06:41:17;;;;;;;3.17;2.13;;;;;;;7.04;100.00;103649.41;5009608;28;20446;-70
2022/04/16 06:43:43;;;;;;;5.00;2.50;;;;;;;7.25;100.00;103661.25;4999579;28;20184;-71
2022/04/16 06:46:08;;;;;;;3.70;2.13;;;;;;;7.21;100.00;103651.75;5011726;28;20326;-71
2022/04/16 06:48:33;;;;;;;2.47;1.90;;;;;;;6.72;100.00;103575.97;5016310;28;20199;-71
2022/04/16 06:50:59;;;;;;;2.23;1.80;;;;;;;6.94;100.00;103586.00;5004283;28;20593;-71
2022/04/16 06:53:28;;;;;;;4.10;2.10;;;;;;;7.24;100.00;103654.22;5018161;28;20852;-71
2022/04/16 06:55:53;;;;;;;2.03;1.90;;;;;;;7.32;100.00;103664.31;5023217;28;20733;-71
2022/04/16 06:58:19;;;;;;;3.33;2.13;;;;;;;7.45;100.00;103659.84;5020268;28;20531;-70
2022/04/16 07:00:44;;;;;;;3.63;1.90;;;;;;;7.38;100.00;103664.78;5017874;28;21307;-71
2022/04/16 07:03:09;;;;;;;2.67;2.07;;;;;;;7.29;100.00;103643.19;5007124;28;20195;-70
2022/04/16 07:05:35;;;;;;;2.57;2.10;;;;;;;7.24;100.00;103648.88;5028544;28;20184;-71
2022/04/16 07:08:00;;;;;;;5.20;3.30;;;;;;;7.61;100.00;103665.81;5025296;28;20662;-71
2022/04/16 07:10:26;;;;;;;4.20;3.20;;;;;;;7.62;100.00;103670.16;5026766;28;20708;-70
2022/04/16 07:12:51;;;;;;;4.57;3.00;;;;;;;7.57;100.00;103664.28;5022968;28;20291;-70
2022/04/16 07:15:16;;;;;;;3.50;2.50;;;;;;;7.25;100.00;103597.16;5013921;28;20851;-70
2022/04/16 07:17:42;;;;;;;4.93;3.00;;;;;;;7.16;100.00;103587.16;5021823;28;20203;-70
2022/04/16 07:20:08;;;;;;;3.20;2.63;;;;;;;7.56;100.00;103632.38;5021998;28;20215;-71
2022/04/16 07:22:34;;;;;;;4.17;2.50;;;;;;;7.35;100.00;103613.41;5019449;28;20208;-71
2022/04/16 07:25:00;;;;;;;5.47;3.13;;;;;;;7.67;100.00;103657.34;4998990;28;20833;-70
2022/04/16 07:27:25;;;;;;;5.27;3.07;;;;;;;7.70;100.00;103658.94;5016742;28;20446;-70
2022/04/16 07:29:58;;;;;;;3.60;2.70;;;;;;;7.90;100.00;103668.19;5015390;28;20196;-70
2022/04/16 07:32:23;;;;;;;3.33;2.23;;;;;;;7.65;100.00;103629.03;5015744;28;20241;-71
2022/04/16 07:34:49;;;;;;;4.67;2.73;;;;;;;8.08;100.00;103679.34;5015365;28;20498;-71
2022/04/16 07:37:14;;;;;;;2.90;2.40;;;;;;;7.93;100.00;103660.78;5016231;28;20267;-71
2022/04/16 07:39:40;;;;;;;6.83;2.60;;;;;;;8.00;100.00;103655.84;5014172;28;20195;-71
2022/04/16 07:42:06;;;;;;;3.43;2.10;;;;;;;8.17;100.00;103680.47;5011099;28;20295;-70
2022/04/16 07:44:31;;;;;;;7.63;2.90;;;;;;;7.76;100.00;103614.91;5018335;28;20445;-71
2022/04/16 07:46:56;;;;;;;3.67;2.67;;;;;;;8.24;100.00;103654.97;5017255;28;20197;-70
2022/04/16 07:49:22;;;;;;;4.47;2.60;;;;;;;8.32;100.00;103668.63;5020225;28;20220;-70
2022/04/16 07:51:48;;;;;;;16.43;2.90;;;;;;;8.41;100.00;103673.31;5025141;28;20619;-71
2022/04/16 07:54:14;;;;;;;4.90;3.07;;;;;;;7.29;100.00;103469.66;5001626;28;20236;-75
2022/04/16 07:56:39;;;;;;;4.67;2.50;;;;;;;8.42;100.00;103648.31;5017962;28;21019;-71
2022/04/16 07:59:04;;;;;;;5.60;2.80;;;;;;;8.35;100.00;103626.47;5019453;28;20210;-71
2022/04/16 08:01:30;;;;;;;7.60;3.27;;;;;;;7.91;100.00;103554.97;5018991;28;20220;-71
2022/04/16 08:03:56;;;;;;;6.00;3.30;;;;;;;8.62;100.00;103665.53;5019285;28;20219;-71
2022/04/16 08:06:21;;;;;;;4.63;2.83;;;;;;;8.27;100.00;103612.81;5022380;28;20274;-73
2022/04/16 08:08:46;;;;;;;6.60;2.80;;;;;;;8.83;100.00;103679.91;4997583;28;20287;-72
2022/04/16 08:11:12;;;;;;;5.73;3.87;;;;;;;8.46;100.00;103616.81;5016296;28;20282;-72
2022/04/16 08:13:37;;;;;;;4.87;3.13;;;;;;;8.74;100.00;103672.59;4997614;28;20235;-73
2022/04/16 08:16:03;;;;;;;4.07;2.60;;;;;;;8.72;100.00;103669.19;4995718;28;20292;-71
2022/04/16 08:18:29;;;;;;;2.83;1.40;;;;;;;8.59;100.00;103633.63;5012356;28;20258;-71
2022/04/16 08:20:54;;;;;;;1.87;1.33;;;;;;;8.83;100.00;103655.00;5012778;28;20871;-71
2022/04/16 08:23:19;;;;;;;3.17;1.40;;;;;;;8.80;100.00;103674.81;5014303;28;20240;-72
2022/04/16 08:25:45;;;;;;;1.90;1.70;;;;;;;8.28;100.00;103587.78;5015010;28;20181;-72
2022/04/16 08:28:10;;;;;;;2.67;1.93;;;;;;;8.92;100.00;103683.72;5018604;28;20278;-71
2022/04/16 08:30:36;;;;;;;2.87;1.90;;;;;;;8.66;100.00;103597.41;5013627;28;20242;-72
2022/04/16 08:33:01;;;;;;;2.47;1.93;;;;;;;8.76;100.00;103601.06;4991090;28;20864;-71
2022/04/16 08:35:27;;;;;;;3.83;2.07;;;;;;;9.15;100.00;103668.53;5011429;28;20203;-72
2022/04/16 08:37:52;;;;;;;3.23;1.93;;;;;;;9.08;100.00;103666.44;5021865;28;20189;-71
2022/04/16 08:40:19;;;;;;;2.13;1.60;;;;;;;8.85;100.00;103588.78;5021536;28;20197;-73
2022/04/16 08:42:48;;;;;;;4.47;1.33;;;;;;;9.40;100.00;103672.81;5018598;28;20204;-71
2022/04/16 08:45:14;;;;;;;1.83;1.60;;;;;;;9.37;100.00;103653.44;5013683;28;20427;-70
2022/04/16 08:47:40;;;;;;;1.87;1.63;;;;;;;9.02;100.00;103599.00;5004092;28;20504;-71
2022/04/16 08:50:08;;;;;;;1.60;1.37;;;;;;;9.02;100.00;103582.94;5013537;28;20189;-71
2022/04/16 08:52:35;;;;;;;2.40;1.40;;;;;;;9.54;100.00;103649.41;5000946;23;20512;-70
2022/04/16 08:55:03;;;;;;;2.70;2.00;;;;;;;9.70;100.00;103663.28;4976187;28;20595;-70
2022/04/16 08:57:28;;;;;;;2.77;1.70;;;;;;;9.49;100.00;103628.38;4976137;28;20481;-70
2022/04/16 08:59:55;;;;;;;4.60;2.43;;;;;;;9.76;100.00;103657.44;4971627;28;20532;-70
2022/04/16 09:02:22;;;;;;;4.30;2.87;;;;;;;9.69;100.00;103659.78;4976485;28;20309;-70
2022/04/16 09:04:49;;;;;;;4.10;3.13;;;;;;;9.75;100.00;103650.38;5003787;28;20443;-69
2022/04/16 09:07:15;;;;;;;12.70;7.27;;;;;;;9.70;100.00;103668.66;5002891;28;20465;-69
2022/04/16 09:09:41;;;;;;;19.43;12.03;;;;;;;9.73;100.00;103663.91;4997975;28;20439;-70
2022/04/16 09:12:18;;;;;;;13.23;8.00;;;;;;;9.83;100.00;103664.00;4999815;28;21019;-70
2022/04/16 09:14:45;;;;;;;11.30;5.73;;;;;;;9.72;100.00;103632.72;4990319;28;20471;-69
2022/04/16 09:17:16;;;;;;;11.60;6.47;;;;;;;10.03;100.00;103669.56;4999032;28;20472;-69
2022/04/16 09:19:41;;;;;;;7.20;4.50;;;;;;;10.06;100.00;103664.78;4995273;28;20476;-70
2022/04/16 09:22:08;;;;;;;5.23;3.23;;;;;;;9.99;100.00;103663.59;4995994;28;20566;-70
2022/04/16 09:24:47;;;;;;;2.43;2.10;;;;;;;10.04;100.00;103656.03;4995511;28;20673;-70
2022/04/16 09:27:12;;;;;;;3.23;2.30;;;;;;;10.07;100.00;103645.06;4990668;28;20444;-70
2022/04/16 09:29:40;;;;;;;5.10;2.23;;;;;;;10.21;100.00;103635.00;5000312;28;20515;-69
2022/04/16 09:32:06;;;;;;;3.40;2.10;;;;;;;10.07;100.00;103625.44;4996790;28;20254;-70
2022/04/16 09:34:31;;;;;;;2.20;2.00;;;;;;;10.21;100.00;103656.44;4998821;28;20480;-70
2022/04/16 09:36:57;;;;;;;1.80;1.67;;;;;;;10.26;100.00;103659.59;5000194;28;20451;-71
2022/04/16 09:39:22;;;;;;;2.60;1.70;;;;;;;10.14;100.00;103654.28;4996358;28;20181;-69
2022/04/16 09:41:51;;;;;;;4.93;2.60;;;;;;;10.29;100.00;103624.50;5002781;28;20214;-69
2022/04/16 09:44:21;;;;;;;4.30;2.90;;;;;;;10.38;100.00;103637.16;4978662;28;20180;-69
2022/04/16 09:46:48;;;;;;;3.80;2.53;;;;;;;10.48;100.00;103648.81;4992930;28;20447;-69
2022/04/16 09:49:15;;;;;;;4.60;2.90;;;;;;;10.54;100.00;103642.09;4983239;28;20439;-70
2022/04/16 09:51:42;;;;;;;6.17;2.40;;;;;;;10.73;100.00;103630.59;5000090;28;20478;-68
2022/04/16 09:54:11;;;;;;;7.90;4.20;;;;;;;10.80;100.00;103640.69;4996984;28;20479;-68
2022/04/16 09:56:39;;;;;;;6.60;3.70;;;;;;;10.80;100.00;103637.16;4999538;28;20446;-69
2022/04/16 09:59:09;;;;;;;4.03;2.43;;;;;;;10.69;100.00;103637.25;4997650;28;20439;-69
2022/04/16 10:01:39;;;;;;;4.40;2.57;;;;;;;10.94;100.00;103636.84;4996827;28;20463;-67
2022/04/16 10:04:07;;;;;;;3.70;2.10;;;;;;;10.68;100.00;103640.91;4994218;28;20448;-68
2022/04/16 10:06:34;;;;;;;3.20;2.70;;;;;;;10.85;100.00;103629.56;4994057;28;24568;-67
2022/04/16 10:09:13;;;;;;;4.10;3.23;;;;;;;10.84;100.00;103635.91;5001008;28;20892;-67
2022/04/16 10:12:59;;;;;;;5.70;3.30;;;;;;;10.78;100.00;103621.19;4998844;28;21032;-68
2022/04/16 10:14:38;;;;;;;7.20;3.70;;;;;;;10.91;100.00;103622.84;5002582;28;20478;-68
2022/04/16 10:17:39;;;;;;;6.03;4.00;;;;;;;11.10;100.00;103625.59;4983929;28;20991;-69
2022/04/16 10:20:30;;;;;;;6.97;4.70;;;;;;;11.32;100.00;103619.19;5002793;28;20444;-68
2022/04/16 10:22:58;;;;;;;8.70;4.97;;;;;;;11.43;100.00;103618.25;4998966;28;20480;-70
2022/04/16 10:25:44;;;;;;;10.37;5.63;;;;;;;11.31;100.00;103614.78;5000531;28;20570;-69
2022/04/16 10:28:16;;;;;;;7.67;5.40;;;;;;;11.52;100.00;103630.84;5002105;28;20440;-69
2022/04/16 10:30:52;;;;;;;9.83;6.20;;;;;;;11.32;100.00;103625.41;5001802;28;20436;-69
2022/04/16 10:33:25;;;;;;;6.83;4.90;;;;;;;11.54;100.00;103631.56;4996793;28;20523;-69
2022/04/16 10:35:54;;;;;;;10.83;4.83;;;;;;;11.50;100.00;103612.16;4979813;28;20504;-69
2022/04/16 10:38:23;;;;;;;5.37;3.97;;;;;;;11.49;100.00;103633.81;4988160;28;20459;-69
2022/04/16 10:40:59;;;;;;;4.57;3.43;;;;;;;11.32;100.00;103574.34;4986595;28;20446;-68
2022/04/16 10:43:29;;;;;;;5.60;3.57;;;;;;;11.57;100.00;103627.75;4997939;28;20464;-69
2022/04/16 10:46:04;;;;;;;4.60;3.03;;;;;;;11.54;100.00;103628.84;4982469;28;20514;-69
2022/04/16 10:48:34;;;;;;;6.30;3.57;;;;;;;11.42;100.00;103601.25;4995788;28;20448;-68
2022/04/16 10:51:01;;;;;;;3.80;2.90;;;;;;;11.84;100.00;103627.13;4998045;28;20494;-68
2022/04/16 10:53:32;;;;;;;4.43;3.03;;;;;;;11.81;100.00;103622.00;4997726;28;20529;-68
2022/04/16 10:56:09;;;;;;;5.67;2.93;;;;;;;11.80;100.00;103631.91;4992402;28;20949;-68
2022/04/16 10:58:35;;;;;;;4.13;3.17;;;;;;;11.98;100.00;103627.59;4991166;28;20446;-68
2022/04/16 11:01:11;;;;;;;2.70;2.30;;;;;;;12.10;100.00;103614.84;5003463;28;20808;-68
2022/04/16 11:03:47;;;;;;;3.37;2.10;;;;;;;11.98;100.00;103624.91;5005889;28;20185;-68
2022/04/16 11:06:14;;;;;;;2.37;1.97;;;;;;;12.15;100.00;103617.97;5007824;28;20423;-68
2022/04/16 11:08:41;;;;;;;2.63;2.27;;;;;;;12.23;100.00;103614.56;5007001;28;20456;-68
2022/04/16 11:11:08;;;;;;;2.70;1.90;;;;;;;12.29;100.00;103599.69;4988068;28;20494;-68
2022/04/16 11:13:36;;;;;;;2.73;1.97;;;;;;;12.33;100.00;103609.19;5006751;28;20471;-68
2022/04/16 11:16:02;;;;;;;11.57;2.20;;;;;;;12.30;100.00;103596.00;5008815;28;20427;-68
2022/04/16 11:18:44;;;;;;;3.20;2.53;;;;;;;12.30;100.00;103598.72;5008143;28;20459;-68
2022/04/16 11:21:16;;;;;;;2.10;1.60;;;;;;;12.41;100.00;103594.00;5001556;28;20863;-68
2022/04/16 11:23:46;;;;;;;2.30;1.83;;;;;;;12.43;100.00;103583.09;5001043;28;20460;-68
2022/04/16 11:34:29;;;;;;;2.73;2.20;;;;;;;12.15;100.00;103541.75;5004505;28;20533;-68